Preveza, Greece
Current Conditions -  °F | °C
As of 4:50 PM on Thursday 30 Oct 2014 (Local Time) from LGPZ Reporting Station
Scattered Clouds Scattered Clouds  
Wind Chill: 18°   Ceiling: Unl
Heat Index: 18°   Visibility: 6mi
Dew Point: 10°   Wind: 8mph
Humidity: 59%   Direction: 300°WNW
Pressure: 30.09"   Gusts: NA
Location:  38.95°N, 20.75°E
Report Text: LGPZ 301350Z 30007KT 9999 FEW020TCU SCT100 18/10 Q1019
Loading
Personal Weather Stations






























Interactive Weather Map
Tropical Storm Tracking
New forecast layout! Learn more

10-Day Weather Forecast

Advertisements
Track Severe Weather on mobile